Time;durP1;ratioP1;P1;durP2;ratioP2;P2;SDS_P1;SDS_P2;PMS_P1;PMS_P2;Temp;Humidity;BMP_temperature;BMP_pressure;BME280_temperature;BME280_humidity;BME280_pressure;Samples;Min_cycle;Max_cycle;Signal;HPM_P1;HPM_P2
2023/05/08 00:01:11;;;;;;;4.88;4.05;;;11.10;99.90;;;;;;6246737;22;20172;-64
2023/05/08 00:03:38;;;;;;;4.60;4.05;;;11.20;99.90;;;;;;6247646;22;20183;-64
2023/05/08 00:06:05;;;;;;;4.13;3.65;;;11.10;99.90;;;;;;6239830;22;20198;-63
2023/05/08 00:08:34;;;;;;;5.28;4.57;;;11.10;99.90;;;;;;6231035;22;20590;-63
2023/05/08 00:11:00;;;;;;;4.18;3.78;;;11.10;99.90;;;;;;6242747;22;20698;-64
2023/05/08 00:13:27;;;;;;;4.18;3.78;;;11.10;99.90;;;;;;6252686;22;20183;-64
2023/05/08 00:15:54;;;;;;;5.63;4.03;;;11.10;99.90;;;;;;6238574;22;20791;-63
2023/05/08 00:18:21;;;;;;;5.15;4.25;;;11.10;99.90;;;;;;6249466;22;20172;-63
2023/05/08 00:20:47;;;;;;;5.40;4.60;;;11.10;99.90;;;;;;6238804;22;20183;-63
2023/05/08 00:23:14;;;;;;;5.13;4.38;;;11.10;99.90;;;;;;6232255;22;20176;-64
2023/05/08 00:25:42;;;;;;;5.18;4.15;;;11.10;99.90;;;;;;6246993;22;20176;-63
2023/05/08 00:28:09;;;;;;;4.25;3.85;;;11.10;99.90;;;;;;6238641;22;20591;-64
2023/05/08 00:30:36;;;;;;;5.15;4.10;;;11.10;99.90;;;;;;6242092;22;20172;-63
2023/05/08 00:33:03;;;;;;;5.35;3.90;;;11.10;99.90;;;;;;6247078;22;20178;-64
2023/05/08 00:35:30;;;;;;;4.45;4.00;;;11.10;99.90;;;;;;6242078;22;20245;-64
2023/05/08 00:37:56;;;;;;;5.65;4.20;;;11.10;99.90;;;;;;6238762;22;20168;-64
2023/05/08 00:40:23;;;;;;;4.45;4.05;;;11.10;99.90;;;;;;6243527;22;20807;-63
2023/05/08 00:42:51;;;;;;;5.13;4.03;;;11.10;99.90;;;;;;6243165;22;20176;-64
2023/05/08 00:45:18;;;;;;;4.45;3.88;;;11.00;99.90;;;;;;6243387;22;20333;-64
2023/05/08 00:47:45;;;;;;;4.32;3.88;;;11.00;99.90;;;;;;6251257;22;20176;-63
2023/05/08 00:50:13;;;;;;;4.93;4.30;;;11.00;99.90;;;;;;6246676;22;20550;-63
2023/05/08 00:52:40;;;;;;;4.68;4.18;;;11.00;99.90;;;;;;6236859;22;20176;-64
2023/05/08 00:55:08;;;;;;;5.20;4.47;;;10.90;99.90;;;;;;6229047;22;20406;-63
2023/05/08 00:57:35;;;;;;;4.40;4.00;;;10.90;99.90;;;;;;6243655;22;20227;-64
2023/05/08 01:00:06;;;;;;;4.95;4.45;;;10.90;99.90;;;;;;6245986;22;20187;-63
2023/05/08 01:02:34;;;;;;;4.35;3.95;;;10.90;99.90;;;;;;6238264;22;20337;-64
2023/05/08 01:05:01;;;;;;;4.85;3.78;;;10.90;99.90;;;;;;6250864;22;20177;-63
2023/05/08 01:07:28;;;;;;;4.40;3.95;;;10.90;99.90;;;;;;6238439;22;20241;-63
2023/05/08 01:09:55;;;;;;;7.00;4.47;;;10.90;99.90;;;;;;6232259;22;20181;-64
2023/05/08 01:12:29;;;;;;;5.68;4.30;;;11.00;99.90;;;;;;6244409;22;20172;-64
2023/05/08 01:15:06;;;;;;;5.85;4.25;;;10.80;99.90;;;;;;6250216;22;20523;-64
2023/05/08 01:17:43;;;;;;;5.25;4.22;;;10.80;99.90;;;;;;6247467;22;20775;-63
2023/05/08 01:20:28;;;;;;;4.45;3.92;;;10.80;99.90;;;;;;6251506;22;20647;-63
2023/05/08 01:23:38;;;;;;;4.22;3.60;;;10.80;99.90;;;;;;6241567;22;20172;-63
2023/05/08 01:26:35;;;;;;;4.90;4.40;;;10.80;99.90;;;;;;6237616;22;20175;-63
2023/05/08 01:29:32;;;;;;;5.25;3.80;;;10.80;99.90;;;;;;6246379;22;20175;-63
2023/05/08 01:32:23;;;;;;;4.40;4.00;;;10.80;99.90;;;;;;6199151;22;20195;-63
2023/05/08 01:35:02;;;;;;;5.50;4.28;;;10.80;99.90;;;;;;6243624;22;20176;-63
2023/05/08 01:37:35;;;;;;;4.57;4.03;;;10.70;99.90;;;;;;6247953;22;20234;-63
2023/05/08 01:40:10;;;;;;;4.85;4.32;;;10.80;99.90;;;;;;6226206;22;20187;-63
2023/05/08 01:42:48;;;;;;;5.45;4.20;;;10.70;99.90;;;;;;6246813;22;20171;-63
2023/05/08 01:45:20;;;;;;;4.53;4.07;;;10.70;99.90;;;;;;6240914;22;20213;-64
2023/05/08 01:47:54;;;;;;;4.53;4.13;;;10.70;99.90;;;;;;6250571;22;20172;-63
2023/05/08 01:50:29;;;;;;;4.93;3.80;;;10.70;99.90;;;;;;6246447;22;20167;-63
2023/05/08 01:53:00;;;;;;;4.63;4.07;;;10.70;99.90;;;;;;6244703;22;20715;-63
2023/05/08 01:55:34;;;;;;;5.65;4.22;;;10.70;99.90;;;;;;6215980;22;20585;-64
2023/05/08 01:58:04;;;;;;;5.00;4.28;;;10.60;99.90;;;;;;6246429;22;20176;-63
2023/05/08 02:00:31;;;;;;;6.63;4.70;;;10.60;99.90;;;;;;6238094;22;20295;-63
2023/05/08 02:03:00;;;;;;;5.43;4.55;;;10.60;99.90;;;;;;6247538;22;20665;-63
2023/05/08 02:05:28;;;;;;;11.35;4.03;;;10.60;99.90;;;;;;6246094;22;20837;-63
2023/05/08 02:07:56;;;;;;;6.03;4.55;;;10.60;99.90;;;;;;6247264;22;20183;-63
2023/05/08 02:10:25;;;;;;;4.80;4.28;;;10.60;99.90;;;;;;6237446;22;20172;-63
2023/05/08 02:12:53;;;;;;;5.35;4.20;;;10.60;99.90;;;;;;6232301;22;20589;-63
2023/05/08 02:15:22;;;;;;;5.10;4.00;;;10.60;99.90;;;;;;6241097;22;20173;-64
2023/05/08 02:17:50;;;;;;;8.57;4.45;;;10.60;99.90;;;;;;6247881;22;20611;-64
2023/05/08 02:20:20;;;;;;;7.50;4.60;;;10.50;99.90;;;;;;6246611;22;20172;-63
2023/05/08 02:22:50;;;;;;;5.03;4.53;;;10.50;99.90;;;;;;6245451;22;20666;-64
2023/05/08 02:25:18;;;;;;;5.97;4.82;;;10.50;99.90;;;;;;6238780;22;20183;-63
2023/05/08 02:27:47;;;;;;;4.78;4.00;;;10.40;99.90;;;;;;6232092;22;20207;-63
2023/05/08 02:30:16;;;;;;;6.30;4.05;;;10.40;99.90;;;;;;6245394;22;20172;-63
2023/05/08 02:32:44;;;;;;;7.28;4.68;;;10.40;99.90;;;;;;6244065;22;20396;-63
2023/05/08 02:35:14;;;;;;;4.82;4.32;;;10.50;99.90;;;;;;6243726;22;20395;-63
2023/05/08 02:37:45;;;;;;;6.38;4.80;;;10.40;99.90;;;;;;6247419;22;20207;-63
2023/05/08 02:40:14;;;;;;;5.50;4.75;;;10.30;99.90;;;;;;6246220;22;20176;-64
2023/05/08 02:42:41;;;;;;;5.03;4.60;;;10.30;99.90;;;;;;6221900;22;20780;-63
2023/05/08 02:45:11;;;;;;;5.43;4.82;;;10.20;99.90;;;;;;6248554;22;20192;-64
2023/05/08 02:47:43;;;;;;;5.85;4.63;;;10.20;99.90;;;;;;6239776;22;20176;-64
2023/05/08 02:50:17;;;;;;;4.80;4.25;;;10.20;99.90;;;;;;6243511;22;20187;-63
2023/05/08 02:52:49;;;;;;;6.00;4.40;;;10.20;99.90;;;;;;6249366;22;20176;-63
2023/05/08 02:55:33;;;;;;;5.45;4.95;;;10.10;99.90;;;;;;6245011;22;20176;-63
2023/05/08 02:58:11;;;;;;;5.32;4.55;;;10.10;99.90;;;;;;6229732;22;20211;-63
2023/05/08 03:00:45;;;;;;;5.40;4.82;;;10.10;99.90;;;;;;6248757;22;20517;-63
2023/05/08 03:03:17;;;;;;;5.72;4.90;;;10.10;99.90;;;;;;6238225;22;20172;-63
2023/05/08 03:05:51;;;;;;;8.07;4.60;;;10.10;99.90;;;;;;6249635;22;20172;-63
2023/05/08 03:08:25;;;;;;;5.43;4.63;;;10.00;99.90;;;;;;6243649;22;20543;-63
2023/05/08 03:10:56;;;;;;;7.63;5.15;;;10.00;99.90;;;;;;6246594;22;20172;-63
2023/05/08 03:13:25;;;;;;;5.60;4.65;;;10.00;99.90;;;;;;6226023;22;20380;-63
2023/05/08 03:15:55;;;;;;;5.78;4.88;;;10.00;99.90;;;;;;6246293;22;20172;-63
2023/05/08 03:18:26;;;;;;;5.85;4.80;;;10.00;99.90;;;;;;6240827;22;20176;-63
2023/05/08 03:20:56;;;;;;;5.30;4.72;;;9.90;99.90;;;;;;6246444;22;20172;-63
2023/05/08 03:23:27;;;;;;;6.35;4.70;;;9.90;99.90;;;;;;6247276;22;20474;-63
2023/05/08 03:25:57;;;;;;;7.32;4.97;;;9.90;99.90;;;;;;6246515;22;20172;-63
2023/05/08 03:28:24;;;;;;;5.53;4.88;;;9.80;99.90;;;;;;6240114;22;20176;-63
2023/05/08 03:30:53;;;;;;;5.45;4.90;;;9.80;99.90;;;;;;6233297;22;20188;-63
2023/05/08 03:33:23;;;;;;;5.43;4.70;;;9.70;99.90;;;;;;6240219;22;20213;-63
2023/05/08 03:35:51;;;;;;;7.20;5.28;;;9.70;99.90;;;;;;6247491;22;20173;-63
2023/05/08 03:38:18;;;;;;;6.65;4.97;;;9.60;99.90;;;;;;6247786;22;20204;-63
2023/05/08 03:40:48;;;;;;;5.30;4.65;;;9.60;99.90;;;;;;6252615;22;20994;-63
2023/05/08 03:43:16;;;;;;;5.85;5.13;;;9.60;99.90;;;;;;6238609;22;20328;-63
2023/05/08 03:45:44;;;;;;;6.00;5.38;;;9.60;99.90;;;;;;6232835;22;20547;-63
2023/05/08 03:48:13;;;;;;;6.35;5.63;;;9.60;99.90;;;;;;6237705;22;20373;-63
2023/05/08 03:50:40;;;;;;;5.68;5.07;;;9.50;99.90;;;;;;6248704;22;20196;-63
2023/05/08 03:53:07;;;;;;;6.13;5.25;;;9.50;99.90;;;;;;6246850;22;20588;-63
2023/05/08 03:55:34;;;;;;;5.90;5.30;;;9.50;99.90;;;;;;6243822;22;20509;-64
2023/05/08 03:58:21;;;;;;;5.95;5.07;;;9.50;99.90;;;;;;6238838;22;20404;-63
2023/05/08 04:00:59;;;;;;;8.02;5.20;;;9.50;99.90;;;;;;6216738;22;21074;-63
2023/05/08 04:03:35;;;;;;;6.03;5.43;;;9.50;99.90;;;;;;6238373;22;20171;-63
2023/05/08 04:06:09;;;;;;;5.68;5.07;;;9.40;99.90;;;;;;6247743;22;20279;-63
2023/05/08 04:08:42;;;;;;;5.85;5.35;;;9.50;99.90;;;;;;6238110;22;20182;-63
2023/05/08 04:11:16;;;;;;;5.97;5.38;;;9.40;99.90;;;;;;6235659;22;20176;-63
2023/05/08 04:13:50;;;;;;;6.18;5.35;;;9.40;99.90;;;;;;6246602;22;20384;-63
2023/05/08 04:16:23;;;;;;;7.05;5.70;;;9.40;99.90;;;;;;6222073;22;20171;-63
2023/05/08 04:18:53;;;;;;;6.70;5.45;;;9.40;99.90;;;;;;6244126;22;20524;-63
2023/05/08 04:21:24;;;;;;;6.20;5.55;;;9.50;99.90;;;;;;6245906;22;20630;-63
2023/05/08 04:23:53;;;;;;;6.80;5.63;;;9.40;99.90;;;;;;6236288;22;20666;-63
2023/05/08 04:26:21;;;;;;;6.75;5.45;;;9.40;99.90;;;;;;6249192;22;20512;-63
2023/05/08 04:28:49;;;;;;;5.40;4.78;;;9.40;99.90;;;;;;6236025;22;20263;-63
2023/05/08 04:31:17;;;;;;;10.27;5.60;;;9.40;99.90;;;;;;6232702;22;20647;-63
2023/05/08 04:33:45;;;;;;;5.78;5.25;;;9.40;99.90;;;;;;6237673;22;20172;-63
2023/05/08 04:36:12;;;;;;;5.93;5.32;;;9.40;99.90;;;;;;6250132;22;20176;-63
2023/05/08 04:38:40;;;;;;;6.63;5.43;;;9.40;99.90;;;;;;6250281;22;20206;-63
2023/05/08 04:41:07;;;;;;;5.32;4.75;;;9.40;99.90;;;;;;6243128;22;20192;-63
2023/05/08 04:43:34;;;;;;;5.68;5.18;;;9.40;99.90;;;;;;6240852;22;20973;-63
2023/05/08 04:46:05;;;;;;;8.93;5.68;;;9.40;99.90;;;;;;6233301;22;20811;-63
2023/05/08 04:48:32;;;;;;;7.50;5.82;;;9.40;99.90;;;;;;6229630;22;20183;-63
2023/05/08 04:50:59;;;;;;;10.50;6.03;;;9.40;99.90;;;;;;6242026;22;20172;-63
2023/05/08 04:53:26;;;;;;;7.28;5.75;;;9.40;99.90;;;;;;6244158;22;20214;-63
2023/05/08 04:55:53;;;;;;;6.25;5.32;;;9.40;99.90;;;;;;6239178;22;20762;-63
2023/05/08 04:58:20;;;;;;;8.30;5.50;;;9.50;99.90;;;;;;6246840;22;20218;-63
2023/05/08 05:00:47;;;;;;;6.93;5.50;;;9.60;99.90;;;;;;6235762;22;20192;-63
2023/05/08 05:03:15;;;;;;;9.90;5.80;;;9.50;99.90;;;;;;6220764;22;20198;-63
2023/05/08 05:05:42;;;;;;;7.95;5.15;;;9.50;99.90;;;;;;6238363;22;20648;-63
2023/05/08 05:08:09;;;;;;;8.00;5.38;;;9.60;99.90;;;;;;6214880;22;20192;-63
2023/05/08 05:10:37;;;;;;;6.47;5.70;;;9.60;99.90;;;;;;6224619;22;20203;-63
2023/05/08 05:13:04;;;;;;;6.63;5.22;;;9.60;99.90;;;;;;6234192;22;20192;-63
2023/05/08 05:15:31;;;;;;;6.07;5.05;;;9.60;99.90;;;;;;6247111;22;20203;-63
2023/05/08 05:17:58;;;;;;;5.70;5.10;;;9.70;99.90;;;;;;6223743;22;21144;-63
2023/05/08 05:20:27;;;;;;;6.75;4.68;;;9.70;99.90;;;;;;6238456;22;20533;-63
2023/05/08 05:22:54;;;;;;;5.45;4.95;;;9.80;99.90;;;;;;6239779;22;20287;-63
2023/05/08 05:25:21;;;;;;;7.47;5.40;;;9.80;99.90;;;;;;6246012;22;20570;-63
2023/05/08 05:27:48;;;;;;;6.05;4.75;;;9.90;99.90;;;;;;6239423;22;20535;-63
2023/05/08 05:30:15;;;;;;;5.82;5.25;;;10.00;99.90;;;;;;6253366;22;20643;-64
2023/05/08 05:32:42;;;;;;;5.72;5.13;;;10.10;99.90;;;;;;6232577;22;20192;-63
2023/05/08 05:35:10;;;;;;;6.30;5.03;;;10.20;99.90;;;;;;6250624;22;20251;-63
2023/05/08 05:37:38;;;;;;;6.05;5.00;;;10.20;99.90;;;;;;6252108;22;20693;-64
2023/05/08 05:40:06;;;;;;;7.03;4.63;;;10.30;99.90;;;;;;6251644;22;20361;-63
2023/05/08 05:42:33;;;;;;;6.47;4.97;;;10.40;99.90;;;;;;6246531;22;20172;-63
2023/05/08 05:45:00;;;;;;;4.95;4.53;;;10.50;99.90;;;;;;6249546;22;20177;-63
2023/05/08 05:47:27;;;;;;;5.47;4.97;;;10.50;99.90;;;;;;6251261;22;20235;-63
2023/05/08 05:49:54;;;;;;;6.97;5.63;;;10.50;99.90;;;;;;6226596;22;20191;-63
2023/05/08 05:52:21;;;;;;;5.95;5.38;;;10.50;99.90;;;;;;6254689;22;20172;-63
2023/05/08 05:54:49;;;;;;;6.03;5.32;;;10.50;99.90;;;;;;6244775;22;20198;-63
2023/05/08 05:57:16;;;;;;;5.10;4.43;;;10.40;99.90;;;;;;6240854;22;20254;-63
2023/05/08 05:59:43;;;;;;;6.07;5.47;;;10.40;99.90;;;;;;6250037;22;20219;-63
2023/05/08 06:02:17;;;;;;;7.07;5.25;;;10.40;99.90;;;;;;6255157;22;20176;-63
2023/05/08 06:04:44;;;;;;;5.57;4.97;;;10.40;99.90;;;;;;6221521;22;20176;-64
2023/05/08 06:07:10;;;;;;;6.20;5.05;;;10.40;99.90;;;;;;6240870;22;20204;-63
2023/05/08 06:09:37;;;;;;;5.63;5.00;;;10.40;99.90;;;;;;6248931;22;20916;-64
2023/05/08 06:12:07;;;;;;;5.60;5.05;;;10.40;99.90;;;;;;6253632;22;20507;-63
2023/05/08 06:14:33;;;;;;;5.45;4.82;;;10.30;99.90;;;;;;6240117;22;20194;-63
2023/05/08 06:17:00;;;;;;;10.38;5.03;;;10.30;99.90;;;;;;6253023;22;20176;-63
2023/05/08 06:19:28;;;;;;;6.32;5.13;;;10.30;99.90;;;;;;6231950;22;20211;-63
2023/05/08 06:21:55;;;;;;;5.82;5.25;;;10.30;99.90;;;;;;6248191;22;20172;-63
2023/05/08 06:24:22;;;;;;;6.50;5.05;;;10.30;99.90;;;;;;6252716;22;20176;-63
2023/05/08 06:26:49;;;;;;;5.68;5.00;;;10.30;99.90;;;;;;6251500;22;20198;-63
2023/05/08 06:29:17;;;;;;;5.70;5.20;;;10.30;99.90;;;;;;6248094;22;20175;-63
2023/05/08 06:31:44;;;;;;;5.47;4.97;;;10.60;99.90;;;;;;6251360;22;20196;-63
2023/05/08 06:34:10;;;;;;;6.32;4.97;;;10.60;99.90;;;;;;6252228;22;20714;-63
2023/05/08 06:36:37;;;;;;;5.85;5.15;;;10.50;99.90;;;;;;6222131;22;20176;-64
2023/05/08 06:39:05;;;;;;;6.63;5.05;;;10.50;99.90;;;;;;6252315;22;20211;-63
2023/05/08 06:41:32;;;;;;;5.97;5.32;;;10.60;99.90;;;;;;6250222;22;20172;-63
2023/05/08 06:43:59;;;;;;;9.30;5.72;;;10.60;99.90;;;;;;6252387;22;20204;-63
2023/05/08 06:46:28;;;;;;;7.53;5.22;;;10.60;99.90;;;;;;6245317;22;20271;-63
2023/05/08 06:48:55;;;;;;;5.93;5.32;;;10.70;99.90;;;;;;6251563;22;20176;-63
2023/05/08 06:51:22;;;;;;;5.82;4.95;;;10.80;99.90;;;;;;6225217;22;20510;-63
2023/05/08 06:53:49;;;;;;;5.78;4.75;;;10.80;99.90;;;;;;6249061;22;20189;-64
2023/05/08 06:56:15;;;;;;;6.78;4.95;;;10.90;99.90;;;;;;6249559;22;20199;-63
2023/05/08 06:58:42;;;;;;;6.05;5.45;;;11.00;99.90;;;;;;6250840;22;20204;-63
2023/05/08 07:01:09;;;;;;;6.28;5.22;;;11.00;99.90;;;;;;6245587;22;20186;-63
2023/05/08 07:03:40;;;;;;;6.15;5.30;;;11.00;99.90;;;;;;6248059;22;20219;-64
2023/05/08 07:06:08;;;;;;;5.88;5.28;;;11.10;99.90;;;;;;6236039;22;20204;-63
2023/05/08 07:08:35;;;;;;;5.60;4.95;;;11.20;99.90;;;;;;6248711;22;20674;-64
2023/05/08 07:11:01;;;;;;;6.40;4.57;;;11.20;99.90;;;;;;6252111;22;20721;-64
2023/05/08 07:13:28;;;;;;;5.93;5.28;;;11.40;99.90;;;;;;6249124;22;20278;-64
2023/05/08 07:15:55;;;;;;;5.60;5.00;;;11.40;99.90;;;;;;6244578;22;20221;-63
2023/05/08 07:18:22;;;;;;;6.00;5.40;;;11.50;99.90;;;;;;6248462;22;20399;-63
2023/05/08 07:20:51;;;;;;;5.13;4.50;;;11.50;99.90;;;;;;6250043;22;20177;-64
2023/05/08 07:23:17;;;;;;;5.40;4.90;;;11.60;99.90;;;;;;6232570;22;20177;-64
2023/05/08 07:25:44;;;;;;;5.35;4.85;;;11.70;99.90;;;;;;6249172;22;20179;-64
2023/05/08 07:28:11;;;;;;;6.95;6.10;;;11.70;99.90;;;;;;6251930;22;20184;-64
2023/05/08 07:30:38;;;;;;;6.80;5.45;;;11.80;99.90;;;;;;6246159;22;20172;-64
2023/05/08 07:33:05;;;;;;;5.43;4.93;;;11.80;99.90;;;;;;6243097;22;20313;-64
2023/05/08 07:35:31;;;;;;;6.95;5.28;;;11.90;99.90;;;;;;6241822;22;20172;-64
2023/05/08 07:37:59;;;;;;;6.55;5.43;;;11.90;99.90;;;;;;6231214;22;20200;-64
2023/05/08 07:40:26;;;;;;;5.28;4.78;;;11.90;99.90;;;;;;6248194;22;20183;-64
2023/05/08 07:42:53;;;;;;;6.95;4.78;;;12.00;99.90;;;;;;6252364;22;20307;-64
2023/05/08 07:45:20;;;;;;;5.70;5.10;;;12.00;99.90;;;;;;6251693;22;20183;-64
2023/05/08 07:47:51;;;;;;;6.68;5.30;;;12.00;99.90;;;;;;6242593;22;20444;-64
2023/05/08 07:50:19;;;;;;;6.05;4.78;;;12.00;99.90;;;;;;6250422;22;20183;-64
2023/05/08 07:52:46;;;;;;;6.15;5.15;;;12.10;99.90;;;;;;6234102;22;20181;-64
2023/05/08 07:55:14;;;;;;;6.88;4.88;;;12.10;99.90;;;;;;6250337;22;20172;-64
2023/05/08 07:57:43;;;;;;;5.50;4.75;;;12.10;99.90;;;;;;6247746;22;20665;-64
2023/05/08 08:00:12;;;;;;;5.65;5.15;;;12.10;99.90;;;;;;6252142;22;20230;-64
2023/05/08 08:02:39;;;;;;;5.50;5.00;;;12.20;99.90;;;;;;6250181;22;20393;-64
2023/05/08 08:05:06;;;;;;;6.97;5.72;;;12.30;99.90;;;;;;6247790;22;20275;-64
2023/05/08 08:07:33;;;;;;;8.70;5.25;;;12.40;99.90;;;;;;6247684;22;20523;-64
2023/05/08 08:10:00;;;;;;;5.70;5.15;;;12.50;99.90;;;;;;6235448;22;20196;-64
2023/05/08 08:12:28;;;;;;;7.45;5.20;;;12.50;99.90;;;;;;6250130;22;20714;-64
2023/05/08 08:14:55;;;;;;;5.63;5.07;;;12.50;99.90;;;;;;6250454;22;20192;-64
2023/05/08 08:17:22;;;;;;;10.30;5.78;;;12.60;99.90;;;;;;6251206;22;20176;-64
2023/05/08 08:19:49;;;;;;;5.68;5.07;;;12.70;99.90;;;;;;6241289;22;20238;-64
2023/05/08 08:22:16;;;;;;;5.53;4.88;;;12.70;99.90;;;;;;6250391;22;20675;-64
2023/05/08 08:24:42;;;;;;;6.55;5.03;;;12.80;99.90;;;;;;6231594;22;20708;-64
2023/05/08 08:27:09;;;;;;;7.43;5.40;;;12.90;99.90;;;;;;6251829;22;20710;-63
2023/05/08 08:29:37;;;;;;;5.88;5.22;;;13.00;99.90;;;;;;6247467;22;20193;-64
2023/05/08 08:32:05;;;;;;;6.05;5.28;;;13.10;99.90;;;;;;6254189;22;20183;-64
2023/05/08 08:34:33;;;;;;;6.07;5.47;;;13.20;99.90;;;;;;6249898;22;20249;-64
2023/05/08 08:37:00;;;;;;;7.20;5.95;;;13.30;99.90;;;;;;6244292;22;20176;-64
2023/05/08 08:39:27;;;;;;;5.38;4.88;;;13.30;99.90;;;;;;6239465;22;20200;-64
2023/05/08 08:41:54;;;;;;;6.57;5.82;;;13.30;99.90;;;;;;6246044;22;20233;-64
2023/05/08 08:44:21;;;;;;;6.28;5.15;;;13.40;99.90;;;;;;6251554;22;20180;-64
2023/05/08 08:46:51;;;;;;;6.00;5.40;;;13.50;99.90;;;;;;6248812;22;20393;-64
2023/05/08 08:49:19;;;;;;;6.35;5.35;;;13.50;99.90;;;;;;6251791;22;20646;-63
2023/05/08 08:51:50;;;;;;;6.30;5.70;;;13.50;99.90;;;;;;6242988;22;20504;-64
2023/05/08 08:54:20;;;;;;;6.47;5.70;;;13.50;99.90;;;;;;6250805;22;20183;-64
2023/05/08 08:56:50;;;;;;;6.47;5.35;;;13.50;99.90;;;;;;6234322;22;20392;-63
2023/05/08 08:59:18;;;;;;;5.65;5.15;;;13.50;99.90;;;;;;6253449;22;20200;-64
2023/05/08 09:01:47;;;;;;;6.45;5.63;;;13.60;99.90;;;;;;6250484;22;20176;-64
2023/05/08 09:04:16;;;;;;;9.07;5.85;;;13.60;99.90;;;;;;6253708;22;20237;-64
2023/05/08 09:06:44;;;;;;;11.07;5.80;;;13.70;99.90;;;;;;6250946;22;20299;-64
2023/05/08 09:09:12;;;;;;;6.25;5.63;;;13.80;99.90;;;;;;6245628;22;20569;-63
2023/05/08 09:11:40;;;;;;;7.10;5.88;;;13.80;99.90;;;;;;6232563;22;20176;-64
2023/05/08 09:14:07;;;;;;;7.47;6.13;;;13.90;99.90;;;;;;6252397;22;20177;-63
2023/05/08 09:16:34;;;;;;;7.78;5.97;;;14.00;99.90;;;;;;6248698;22;20537;-64
2023/05/08 09:19:02;;;;;;;7.93;5.95;;;14.10;99.90;;;;;;6252707;22;20214;-64
2023/05/08 09:21:30;;;;;;;6.40;5.22;;;14.20;99.90;;;;;;6249498;22;20254;-64
2023/05/08 09:23:58;;;;;;;5.90;5.30;;;14.30;99.90;;;;;;6243565;22;20176;-64
2023/05/08 09:26:33;;;;;;;6.20;5.60;;;14.50;99.90;;;;;;6241552;22;20180;-64
2023/05/08 09:29:11;;;;;;;6.88;5.70;;;14.40;99.90;;;;;;6250125;22;20182;-64
2023/05/08 09:31:40;;;;;;;6.18;5.57;;;14.40;99.90;;;;;;6249007;22;20517;-64
2023/05/08 09:34:07;;;;;;;10.25;6.43;;;14.50;99.90;;;;;;6252604;22;20188;-64
2023/05/08 09:36:36;;;;;;;7.57;6.25;;;14.50;99.90;;;;;;6247858;22;20176;-64
2023/05/08 09:39:03;;;;;;;6.57;5.40;;;14.60;99.90;;;;;;6245810;22;20223;-64
2023/05/08 09:41:30;;;;;;;8.15;6.07;;;14.70;99.90;;;;;;6236807;22;20647;-64
2023/05/08 09:44:01;;;;;;;8.07;6.25;;;14.70;99.90;;;;;;6248882;22;20218;-64
2023/05/08 09:46:28;;;;;;;6.75;5.90;;;14.70;99.90;;;;;;6249890;22;20176;-64
2023/05/08 09:48:57;;;;;;;6.70;5.78;;;14.80;99.90;;;;;;6252950;22;20262;-64
2023/05/08 09:51:25;;;;;;;6.55;5.85;;;14.80;99.90;;;;;;6252932;22;20497;-64
2023/05/08 09:53:54;;;;;;;6.63;5.95;;;14.90;99.90;;;;;;6242364;22;20499;-64
2023/05/08 09:56:38;;;;;;;7.57;6.13;;;14.80;99.90;;;;;;6245915;22;20178;-65
2023/05/08 09:59:21;;;;;;;9.18;6.35;;;14.90;99.90;;;;;;6253029;22;20659;-64
2023/05/08 10:01:48;;;;;;;7.72;6.32;;;14.90;99.90;;;;;;6250311;22;20372;-65
2023/05/08 10:04:15;;;;;;;6.45;5.85;;;15.00;99.90;;;;;;6253040;22;20172;-65
2023/05/08 10:06:42;;;;;;;6.57;5.78;;;15.10;99.90;;;;;;6248554;22;20204;-65
2023/05/08 10:09:12;;;;;;;9.02;6.18;;;15.10;99.90;;;;;;6251787;22;20172;-64
2023/05/08 10:11:40;;;;;;;6.78;6.07;;;15.10;99.90;;;;;;6223763;22;20176;-65
2023/05/08 10:14:06;;;;;;;8.57;6.25;;;15.20;99.90;;;;;;6253083;22;20246;-65
2023/05/08 10:16:40;;;;;;;7.00;6.30;;;15.30;99.90;;;;;;6249888;22;20199;-65
2023/05/08 10:19:13;;;;;;;7.22;6.28;;;15.40;99.90;;;;;;6252018;22;20199;-65
2023/05/08 10:21:43;;;;;;;7.75;6.28;;;15.50;99.90;;;;;;6248109;22;20176;-64
2023/05/08 10:24:15;;;;;;;8.57;6.50;;;15.50;99.90;;;;;;6250590;22;20172;-64
2023/05/08 10:26:44;;;;;;;6.68;5.97;;;15.50;99.90;;;;;;6240740;22;20534;-65
2023/05/08 10:29:18;;;;;;;7.40;5.75;;;15.50;99.90;;;;;;6236230;22;20176;-64
2023/05/08 10:31:46;;;;;;;7.57;6.78;;;15.40;99.90;;;;;;6246980;22;20180;-65
2023/05/08 10:34:18;;;;;;;8.68;6.88;;;15.50;99.90;;;;;;6247778;22;20198;-65
2023/05/08 10:36:46;;;;;;;7.93;6.57;;;15.60;99.90;;;;;;6250243;22;20180;-65
2023/05/08 10:39:15;;;;;;;11.48;6.25;;;15.70;99.90;;;;;;6248834;22;20699;-65
2023/05/08 10:41:43;;;;;;;6.20;5.55;;;15.70;99.90;;;;;;6245580;22;20199;-65
2023/05/08 10:44:10;;;;;;;6.93;6.22;;;15.70;99.90;;;;;;6230928;22;20749;-64
2023/05/08 10:46:44;;;;;;;7.47;6.10;;;15.70;99.90;;;;;;6251870;22;20790;-65
2023/05/08 10:49:19;;;;;;;8.80;6.50;;;15.90;99.90;;;;;;6248791;22;20737;-65
2023/05/08 10:51:59;;;;;;;6.68;6.00;;;16.00;99.90;;;;;;6249224;22;20172;-65
2023/05/08 10:54:42;;;;;;;7.35;5.97;;;16.10;99.90;;;;;;6250319;22;20203;-65
2023/05/08 10:57:10;;;;;;;7.07;6.32;;;16.20;99.90;;;;;;6242775;22;20366;-65
2023/05/08 10:59:37;;;;;;;6.85;6.15;;;16.30;99.90;;;;;;6235761;22;20246;-65
2023/05/08 11:02:05;;;;;;;7.63;6.80;;;16.30;99.90;;;;;;6237000;22;20226;-65
2023/05/08 11:04:32;;;;;;;7.70;6.80;;;16.40;99.90;;;;;;6248824;22;20182;-65
2023/05/08 11:06:59;;;;;;;6.72;6.03;;;16.50;99.90;;;;;;6237520;22;20200;-65
2023/05/08 11:09:30;;;;;;;5.90;5.40;;;16.50;99.90;;;;;;6226783;22;20176;-66
2023/05/08 11:12:09;;;;;;;8.60;6.32;;;16.50;99.90;;;;;;6240980;22;20191;-65
2023/05/08 11:14:41;;;;;;;9.60;5.90;;;16.50;99.90;;;;;;6221718;22;20180;-66
2023/05/08 11:17:09;;;;;;;6.30;5.70;;;16.50;99.90;;;;;;6235750;22;20172;-66
2023/05/08 11:19:37;;;;;;;7.10;5.68;;;16.60;99.90;;;;;;6250101;22;20222;-66
2023/05/08 11:22:23;;;;;;;6.70;6.00;;;16.70;99.90;;;;;;6244327;22;20195;-65
2023/05/08 11:24:54;;;;;;;6.88;5.78;;;16.70;99.90;;;;;;6250971;22;20178;-65
2023/05/08 11:27:57;;;;;;;7.65;6.72;;;16.70;99.90;;;;;;6235121;22;20203;-66
2023/05/08 11:30:37;;;;;;;5.97;5.43;;;16.80;99.90;;;;;;6173278;22;20196;-66
2023/05/08 11:33:30;;;;;;;6.57;5.95;;;16.80;99.90;;;;;;6243308;22;20192;-65
2023/05/08 11:35:58;;;;;;;9.75;6.22;;;16.80;99.90;;;;;;6253741;22;20183;-66
2023/05/08 11:38:31;;;;;;;6.90;5.57;;;16.80;99.90;;;;;;6242169;22;20172;-66
2023/05/08 11:41:02;;;;;;;6.63;6.03;;;16.80;99.90;;;;;;6253498;22;20203;-66
2023/05/08 11:44:08;;;;;;;6.25;5.65;;;16.90;99.90;;;;;;6235262;22;20246;-66
2023/05/08 11:46:41;;;;;;;7.10;6.15;;;16.90;99.90;;;;;;6225410;22;20249;-66
2023/05/08 11:49:12;;;;;;;7.32;5.82;;;17.00;99.90;;;;;;6252138;22;20179;-65
2023/05/08 11:51:43;;;;;;;5.60;5.00;;;17.00;99.90;;;;;;6250858;22;20184;-66
2023/05/08 11:54:11;;;;;;;6.80;6.15;;;16.90;99.90;;;;;;6227932;22;20178;-65
2023/05/08 11:56:39;;;;;;;6.53;5.78;;;16.90;99.90;;;;;;6249141;22;20799;-65
2023/05/08 11:59:08;;;;;;;6.70;6.05;;;16.80;99.90;;;;;;6229818;22;20750;-66
2023/05/08 12:01:35;;;;;;;8.40;6.18;;;16.80;99.90;;;;;;6233369;22;20258;-64
2023/05/08 12:04:04;;;;;;;7.35;6.55;;;16.90;99.90;;;;;;6238794;22;20214;-66
2023/05/08 12:06:32;;;;;;;6.10;5.50;;;17.00;99.90;;;;;;6244121;22;20281;-65
2023/05/08 12:08:59;;;;;;;9.80;6.07;;;17.10;99.90;;;;;;6242733;22;20172;-66
2023/05/08 12:11:26;;;;;;;9.70;5.95;;;17.10;99.90;;;;;;6249754;22;20689;-65
2023/05/08 12:13:54;;;;;;;7.40;6.60;;;17.10;99.90;;;;;;6243512;22;20176;-65
2023/05/08 12:16:23;;;;;;;6.65;5.95;;;17.20;99.90;;;;;;6222462;22;20196;-66
2023/05/08 12:18:51;;;;;;;6.63;5.93;;;17.30;99.90;;;;;;6241223;22;20264;-65
2023/05/08 12:21:20;;;;;;;6.55;5.78;;;17.30;99.90;;;;;;6248748;22;20628;-66
2023/05/08 12:23:47;;;;;;;6.65;5.95;;;17.40;99.90;;;;;;6251371;22;20183;-65
2023/05/08 12:26:13;;;;;;;7.40;6.15;;;17.40;99.90;;;;;;6235163;22;20203;-66
2023/05/08 12:28:43;;;;;;;9.27;6.18;;;17.50;99.90;;;;;;6242433;22;20658;-66
2023/05/08 12:31:12;;;;;;;6.75;5.78;;;17.50;99.90;;;;;;6229895;22;20207;-66
2023/05/08 12:33:39;;;;;;;7.55;6.45;;;17.70;99.90;;;;;;6218888;22;20196;-66
2023/05/08 12:36:06;;;;;;;7.18;5.90;;;17.80;99.90;;;;;;6236194;22;20262;-66
2023/05/08 12:38:33;;;;;;;8.65;6.15;;;17.80;99.90;;;;;;6235400;22;20196;-65
2023/05/08 12:41:03;;;;;;;12.98;6.28;;;17.90;99.90;;;;;;6234749;22;20208;-66
2023/05/08 12:43:34;;;;;;;6.43;5.78;;;17.90;99.90;;;;;;6236719;22;20192;-66
2023/05/08 12:46:02;;;;;;;8.73;5.85;;;17.80;99.90;;;;;;6230872;22;20176;-66
2023/05/08 12:48:30;;;;;;;8.20;6.18;;;17.80;99.90;;;;;;6233196;22;20274;-65
2023/05/08 12:51:03;;;;;;;10.15;5.82;;;17.90;99.90;;;;;;6247354;22;20179;-66
2023/05/08 12:53:32;;;;;;;6.60;5.90;;;17.90;99.90;;;;;;6249559;22;20178;-65
2023/05/08 12:56:02;;;;;;;6.25;5.35;;;17.80;99.90;;;;;;6241332;22;20752;-66
2023/05/08 12:58:30;;;;;;;6.63;6.03;;;17.90;99.90;;;;;;6241343;22;20176;-66
2023/05/08 13:01:06;;;;;;;6.53;5.65;;;17.80;99.90;;;;;;6213842;22;20204;-66